Time;durP1;ratioP1;P1;durP2;ratioP2;P2;SDS_P1;SDS_P2;PMS_P1;PMS_P2;Temp;Humidity;BMP_temperature;BMP_pressure;BME280_temperature;BME280_humidity;BME280_pressure;Samples;Min_cycle;Max_cycle;Signal;HPM_P1;HPM_P2
2022/12/02 00:00:26;;;;;;;30.73;12.90;;;;;;;5.94;76.96;100441.69;4963408;28;20053;-88
2022/12/02 00:02:54;;;;;;;26.00;11.65;;;;;;;5.92;77.47;100438.25;4943791;28;20038;-88
2022/12/02 00:05:28;;;;;;;26.52;11.63;;;;;;;5.90;77.36;100438.31;4950700;28;20145;-88
2022/12/02 00:07:58;;;;;;;24.63;11.73;;;;;;;5.91;77.63;100442.69;4952502;28;20456;-88
2022/12/02 00:10:28;;;;;;;28.58;11.88;;;;;;;5.91;77.38;100441.84;4937412;28;20090;-88
2022/12/02 00:13:15;;;;;;;25.58;11.25;;;;;;;5.86;76.85;100432.41;4936770;28;20177;-89
2022/12/02 00:15:44;;;;;;;29.70;12.75;;;;;;;5.90;77.10;100434.84;4924092;28;20066;-88
2022/12/02 00:18:12;;;;;;;31.90;11.70;;;;;;;5.88;76.73;100433.16;4938740;28;20039;-88
2022/12/02 00:20:40;;;;;;;30.55;14.02;;;;;;;5.91;76.88;100429.50;4985884;28;20050;-88
2022/12/02 00:23:07;;;;;;;26.38;12.38;;;;;;;5.78;76.90;100426.75;4962672;28;20066;-88
2022/12/02 00:25:34;;;;;;;25.00;12.35;;;;;;;5.83;76.87;100424.69;4968104;28;20065;-88
2022/12/02 00:28:01;;;;;;;28.35;11.80;;;;;;;5.82;76.93;100417.69;4942505;28;20070;-89
2022/12/02 00:30:29;;;;;;;26.90;12.07;;;;;;;5.81;77.19;100420.44;4968372;28;20062;-88
2022/12/02 00:32:56;;;;;;;23.45;11.20;;;;;;;5.78;77.37;100410.94;4965055;28;20062;-88
2022/12/02 00:35:23;;;;;;;27.88;12.07;;;;;;;5.87;77.29;100417.44;4975790;28;20081;-87
2022/12/02 00:37:51;;;;;;;30.60;11.80;;;;;;;5.83;77.24;100410.66;4958670;28;20426;-87
2022/12/02 00:40:18;;;;;;;23.73;11.40;;;;;;;5.87;77.28;100414.78;4969702;28;20057;-87
2022/12/02 00:42:45;;;;;;;28.70;12.68;;;;;;;5.85;77.07;100414.03;4961895;28;20650;-86
2022/12/02 00:47:58;;;;;;;24.55;11.35;;;;;;;5.87;77.47;100407.72;4973678;28;20121;-87
2022/12/02 00:50:26;;;;;;;24.20;11.30;;;;;;;5.84;77.09;100407.09;4960008;28;20046;-87
2022/12/02 00:52:52;;;;;;;24.38;12.07;;;;;;;5.79;77.29;100399.44;4988649;28;20038;-87
2022/12/02 00:55:21;;;;;;;23.42;11.13;;;;;;;5.80;77.45;100397.66;4953591;28;20438;-87
2022/12/02 00:57:48;;;;;;;30.77;12.75;;;;;;;5.73;77.58;100401.63;4959339;28;20746;-87
2022/12/02 01:00:15;;;;;;;28.00;12.10;;;;;;;5.79;77.58;100401.22;4952047;28;20505;-87
2022/12/02 01:02:42;;;;;;;24.33;11.13;;;;;;;5.79;77.56;100391.53;4973328;28;20077;-89
2022/12/02 01:05:09;;;;;;;22.40;11.10;;;;;;;5.80;77.53;100398.53;4967196;28;20053;-88
2022/12/02 01:07:37;;;;;;;26.77;11.70;;;;;;;5.76;77.45;100391.72;4965360;28;20065;-88
2022/12/02 01:10:05;;;;;;;27.45;11.57;;;;;;;5.74;77.95;100392.75;4969510;28;20057;-89
2022/12/02 01:12:32;;;;;;;26.90;12.07;;;;;;;5.78;77.79;100389.84;4975412;28;20039;-88
2022/12/02 01:14:58;;;;;;;23.02;11.30;;;;;;;5.75;77.71;100389.16;4985364;28;20054;-88
2022/12/02 01:17:25;;;;;;;25.33;11.68;;;;;;;5.78;77.61;100389.84;4985068;28;20046;-88
2022/12/02 01:19:53;;;;;;;22.17;11.35;;;;;;;5.72;78.01;100395.47;4984504;28;20046;-88
2022/12/02 01:22:19;;;;;;;25.13;11.35;;;;;;;5.80;77.50;100387.09;4968367;28;20097;-88
2022/12/02 01:24:46;;;;;;;25.42;11.43;;;;;;;5.80;77.61;100393.25;4962820;28;20497;-88
2022/12/02 01:27:13;;;;;;;25.98;12.02;;;;;;;5.80;77.69;100382.72;4974956;28;20440;-88
2022/12/02 01:29:40;;;;;;;27.58;12.18;;;;;;;5.83;77.74;100379.03;4935323;28;20069;-88
2022/12/02 01:32:06;;;;;;;22.75;10.85;;;;;;;5.82;77.86;100382.59;4954769;28;20035;-88
2022/12/02 01:34:33;;;;;;;25.45;11.55;;;;;;;5.84;77.81;100383.34;4959611;28;20048;-87
2022/12/02 01:37:00;;;;;;;25.75;11.40;;;;;;;5.80;77.82;100381.84;4984943;28;20060;-88
2022/12/02 01:39:27;;;;;;;25.58;11.15;;;;;;;5.72;78.06;100382.28;4958602;28;20046;-88
2022/12/02 01:41:53;;;;;;;25.63;11.27;;;;;;;5.74;77.95;100380.41;4971012;28;20046;-88
2022/12/02 01:44:20;;;;;;;24.00;10.95;;;;;;;5.73;78.02;100372.63;4949648;28;20042;-88
2022/12/02 01:46:47;;;;;;;25.83;10.80;;;;;;;5.70;77.85;100376.28;4953779;28;20048;-88
2022/12/02 01:49:14;;;;;;;23.55;11.65;;;;;;;5.54;78.52;100386.03;4986113;28;20482;-88
2022/12/02 01:51:42;;;;;;;24.00;11.73;;;;;;;5.61;78.33;100382.09;4966409;28;20073;-88
2022/12/02 01:54:09;;;;;;;23.30;10.85;;;;;;;5.66;78.42;100380.88;4947004;28;20058;-88
2022/12/02 01:56:35;;;;;;;29.83;13.43;;;;;;;5.56;78.51;100384.16;4966879;28;20051;-88
2022/12/02 01:59:02;;;;;;;29.35;12.27;;;;;;;5.60;78.29;100380.41;4966628;28;20129;-87
2022/12/02 02:01:31;;;;;;;24.45;11.18;;;;;;;5.65;78.39;100383.63;4950277;28;20046;-88
2022/12/02 02:03:58;;;;;;;24.55;12.25;;;;;;;5.68;78.88;100382.59;4966130;28;20167;-88
2022/12/02 02:06:27;;;;;;;28.33;11.55;;;;;;;5.66;78.45;100380.03;4963283;28;20041;-88
2022/12/02 02:08:55;;;;;;;26.60;11.88;;;;;;;5.66;78.52;100380.03;4974959;28;20050;-88
2022/12/02 02:11:22;;;;;;;27.48;11.70;;;;;;;5.61;78.35;100377.66;4976183;28;20402;-89
2022/12/02 02:13:55;;;;;;;27.80;11.73;;;;;;;5.65;78.31;100365.19;4970491;28;20043;-89
2022/12/02 02:16:22;;;;;;;25.63;11.77;;;;;;;5.68;78.48;100374.69;4951924;28;20553;-89
2022/12/02 02:18:49;;;;;;;27.83;12.65;;;;;;;5.66;78.18;100367.69;4942631;28;20078;-88
2022/12/02 02:21:19;;;;;;;24.77;11.23;;;;;;;5.70;77.97;100371.03;4969629;28;20081;-88
2022/12/02 02:23:46;;;;;;;28.55;11.30;;;;;;;5.75;78.21;100373.34;4954630;28;20046;-89
2022/12/02 02:26:13;;;;;;;30.60;12.57;;;;;;;5.75;78.58;100373.34;4968270;28;20418;-89
2022/12/02 02:28:40;;;;;;;29.15;12.38;;;;;;;5.74;78.26;100364.63;4964508;28;20401;-88
2022/12/02 02:31:07;;;;;;;24.52;11.70;;;;;;;5.72;78.16;100355.94;4971039;28;20050;-88
2022/12/02 02:33:40;;;;;;;26.40;12.20;;;;;;;5.70;78.27;100351.69;4957924;28;20050;-88
2022/12/02 02:36:07;;;;;;;25.88;11.73;;;;;;;5.72;78.13;100348.03;4954386;28;20074;-89
2022/12/02 02:38:35;;;;;;;27.95;12.15;;;;;;;5.73;78.42;100354.19;4976906;28;20050;-89
2022/12/02 02:41:04;;;;;;;31.83;12.45;;;;;;;5.67;78.06;100347.47;4968867;28;20042;-88
2022/12/02 02:43:31;;;;;;;24.13;10.68;;;;;;;5.74;78.28;100347.97;4972115;28;20044;-89
2022/12/02 02:45:59;;;;;;;25.92;12.50;;;;;;;5.74;78.51;100348.81;4968148;28;20118;-89
2022/12/02 02:48:33;;;;;;;26.83;12.23;;;;;;;5.76;78.38;100340.81;4970502;28;20043;-89
2022/12/02 02:51:00;;;;;;;27.23;11.38;;;;;;;5.72;78.53;100342.78;4962599;28;20046;-89
2022/12/02 02:53:29;;;;;;;29.40;11.50;;;;;;;5.73;78.40;100338.38;4956539;28;20046;-88
2022/12/02 02:55:57;;;;;;;26.38;12.63;;;;;;;5.75;78.43;100339.09;4949043;28;20066;-88
2022/12/02 02:58:25;;;;;;;22.10;11.20;;;;;;;5.75;78.35;100342.59;4995137;28;21133;-88
2022/12/02 03:01:03;;;;;;;27.17;11.90;;;;;;;5.68;78.33;100336.00;4951192;28;20136;-88
2022/12/02 03:03:32;;;;;;;27.33;11.45;;;;;;;5.67;78.11;100339.56;4947527;28;20071;-88
2022/12/02 03:06:02;;;;;;;25.10;11.77;;;;;;;5.70;78.23;100333.25;4946467;28;20138;-89
2022/12/02 03:08:30;;;;;;;25.45;10.85;;;;;;;5.71;78.21;100333.19;4950200;28;20118;-89
2022/12/02 03:10:59;;;;;;;26.20;11.77;;;;;;;5.61;78.46;100337.31;4963040;28;20115;-89
2022/12/02 03:13:29;;;;;;;26.38;11.95;;;;;;;5.56;78.19;100331.47;4966609;28;20046;-88
2022/12/02 03:15:55;;;;;;;29.98;12.55;;;;;;;5.61;78.20;100321.50;4975436;28;20058;-89
2022/12/02 03:18:22;;;;;;;26.05;11.95;;;;;;;5.62;78.52;100331.09;4969877;28;20056;-89
2022/12/02 03:20:49;;;;;;;22.77;11.10;;;;;;;5.63;78.17;100328.38;4964756;28;20042;-88
2022/12/02 03:23:16;;;;;;;30.90;12.82;;;;;;;5.68;78.08;100332.53;4955096;28;20433;-89
2022/12/02 03:25:43;;;;;;;29.13;12.30;;;;;;;5.66;78.12;100322.06;4942910;28;20046;-88
2022/12/02 03:28:10;;;;;;;29.27;11.77;;;;;;;5.65;78.19;100328.28;4950291;28;20049;-87
2022/12/02 03:30:38;;;;;;;29.25;12.32;;;;;;;5.58;78.43;100329.59;4965917;28;20128;-88
2022/12/02 03:33:05;;;;;;;25.20;11.55;;;;;;;5.62;78.35;100324.06;4970944;28;20129;-88
2022/12/02 03:35:31;;;;;;;28.05;11.40;;;;;;;5.60;78.54;100320.66;4954758;28;20061;-89
2022/12/02 03:37:58;;;;;;;32.30;12.50;;;;;;;5.60;78.63;100333.84;4965751;28;20054;-89
2022/12/02 03:40:25;;;;;;;23.05;11.82;;;;;;;5.63;78.51;100323.09;4967804;28;20395;-88
2022/12/02 03:42:52;;;;;;;34.33;12.40;;;;;;;5.62;78.60;100323.19;4966627;28;20047;-88
2022/12/02 03:45:19;;;;;;;27.85;11.52;;;;;;;5.69;78.41;100324.50;4957459;28;20141;-88
2022/12/02 03:47:46;;;;;;;26.75;11.23;;;;;;;5.71;78.23;100324.44;4969608;28;20097;-88
2022/12/02 03:50:13;;;;;;;26.67;12.25;;;;;;;5.70;78.31;100323.59;4952059;28;20123;-88
2022/12/02 03:52:40;;;;;;;26.98;11.88;;;;;;;5.70;78.34;100328.88;4943067;28;20054;-88
2022/12/02 03:55:07;;;;;;;28.92;12.23;;;;;;;5.77;77.90;100324.91;4955249;28;20498;-89
2022/12/02 03:57:34;;;;;;;32.25;12.75;;;;;;;5.70;77.96;100323.59;4976029;28;20046;-88
2022/12/02 04:00:01;;;;;;;29.13;12.65;;;;;;;5.65;78.09;100313.31;4964175;28;20584;-89
2022/12/02 04:02:38;;;;;;;29.45;13.07;;;;;;;5.64;78.23;100319.50;4969578;28;20046;-88
2022/12/02 04:05:05;;;;;;;28.58;12.65;;;;;;;5.61;78.15;100309.16;4958694;28;20058;-88
2022/12/02 04:07:32;;;;;;;30.70;12.95;;;;;;;5.56;78.30;100315.66;4960331;28;20050;-89
2022/12/02 04:09:59;;;;;;;33.95;14.60;;;;;;;5.55;78.31;100319.25;4950358;28;20049;-88
2022/12/02 04:12:25;;;;;;;33.13;12.63;;;;;;;5.59;78.41;100311.03;4965257;28;20049;-88
2022/12/02 04:14:52;;;;;;;29.02;13.15;;;;;;;5.59;78.25;100311.03;4970099;28;20051;-88
2022/12/02 04:17:19;;;;;;;30.08;12.80;;;;;;;5.60;78.20;100307.50;4971960;28;20050;-87
2022/12/02 04:19:46;;;;;;;31.88;13.10;;;;;;;5.59;78.32;100303.13;4976808;28;20089;-88
2022/12/02 04:22:13;;;;;;;33.63;13.10;;;;;;;5.59;78.20;100300.50;4965679;28;20046;-88
2022/12/02 04:24:40;;;;;;;36.72;14.98;;;;;;;5.62;78.32;100299.47;4963884;28;20057;-88
2022/12/02 04:27:06;;;;;;;32.42;14.48;;;;;;;5.64;78.35;100289.69;4970529;28;20066;-89
2022/12/02 04:29:33;;;;;;;30.75;13.70;;;;;;;5.64;78.62;100287.91;4959583;28;20045;-89
2022/12/02 04:32:00;;;;;;;29.38;12.57;;;;;;;5.60;78.37;100289.06;4946701;28;20058;-88
2022/12/02 04:34:27;;;;;;;32.50;14.13;;;;;;;5.58;78.40;100288.28;4971428;28;20051;-88
2022/12/02 04:36:54;;;;;;;35.17;13.48;;;;;;;5.64;78.28;100293.16;4953666;28;20049;-88
2022/12/02 04:39:20;;;;;;;34.15;14.45;;;;;;;5.58;78.57;100287.44;4944573;28;20049;-88
2022/12/02 04:41:50;;;;;;;30.85;13.35;;;;;;;5.58;78.13;100279.53;4987807;28;20425;-89
2022/12/02 04:44:17;;;;;;;30.85;13.40;;;;;;;5.63;78.22;100277.47;4972818;28;20065;-88
2022/12/02 04:46:44;;;;;;;36.95;13.75;;;;;;;5.52;78.66;100282.53;4941907;28;20046;-88
2022/12/02 04:49:11;;;;;;;32.70;13.55;;;;;;;5.51;78.69;100278.22;4966961;28;20046;-89
2022/12/02 04:51:37;;;;;;;32.72;13.95;;;;;;;5.52;78.57;100285.16;4959667;28;20046;-89
2022/12/02 04:54:04;;;;;;;39.80;14.30;;;;;;;5.48;78.35;100281.03;4961352;28;20049;-89
2022/12/02 04:56:31;;;;;;;32.90;14.07;;;;;;;5.59;78.03;100283.84;4980903;28;20058;-90
2022/12/02 04:58:58;;;;;;;32.85;13.98;;;;;;;5.56;78.19;100276.16;4957230;28;20126;-89
2022/12/02 05:01:25;;;;;;;32.67;14.52;;;;;;;5.51;78.46;100275.56;4946607;28;20498;-90
2022/12/02 05:03:51;;;;;;;34.38;14.52;;;;;;;5.44;78.75;100280.34;4959540;28;20050;-90
2022/12/02 05:06:18;;;;;;;34.40;13.85;;;;;;;5.40;78.37;100271.81;4973004;28;20061;-91
2022/12/02 05:08:45;;;;;;;34.60;13.52;;;;;;;5.45;78.58;100274.16;4961994;28;20050;-90
2022/12/02 05:11:12;;;;;;;35.50;13.20;;;;;;;5.50;78.56;100273.91;4949890;28;20054;-90
2022/12/02 05:13:39;;;;;;;41.15;14.15;;;;;;;5.53;78.96;100274.53;4958503;28;20585;-90
2022/12/02 05:16:08;;;;;;;30.55;13.60;;;;;;;5.56;79.00;100281.41;4951052;28;20046;-90
2022/12/02 05:18:35;;;;;;;37.05;14.63;;;;;;;5.56;78.36;100262.97;4933488;28;20062;-90
2022/12/02 05:21:02;;;;;;;30.30;13.57;;;;;;;5.57;78.67;100259.38;4958101;28;20055;-89
2022/12/02 05:23:29;;;;;;;34.70;14.93;;;;;;;5.60;78.54;100267.13;4971124;28;20398;-88
2022/12/02 05:25:56;;;;;;;33.30;12.68;;;;;;;5.56;78.54;100261.19;4935274;28;20055;-88
2022/12/02 05:28:22;;;;;;;33.92;14.45;;;;;;;5.55;78.49;100262.13;4949113;28;20056;-89
2022/12/02 05:30:49;;;;;;;34.40;14.57;;;;;;;5.60;78.32;100264.50;4959096;28;20042;-89
2022/12/02 05:33:16;;;;;;;35.30;14.95;;;;;;;5.60;78.44;100267.97;4931317;28;20053;-89
2022/12/02 05:35:43;;;;;;;37.63;14.30;;;;;;;5.59;78.50;100263.63;4944879;28;20093;-89
2022/12/02 05:38:10;;;;;;;35.85;15.15;;;;;;;5.50;78.68;100263.38;4965689;28;20038;-88
2022/12/02 05:40:36;;;;;;;37.00;14.23;;;;;;;5.54;78.55;100259.59;4937907;28;20046;-89
2022/12/02 05:43:29;;;;;;;32.33;13.05;;;;;;;5.44;78.40;100260.16;4941308;28;20046;-89
2022/12/02 05:45:58;;;;;;;40.47;15.13;;;;;;;5.55;78.42;100256.03;4874396;28;20470;-89
2022/12/02 05:48:25;;;;;;;34.25;13.65;;;;;;;5.53;78.41;100265.81;4961657;28;20403;-89
2022/12/02 05:50:52;;;;;;;34.25;14.80;;;;;;;5.55;78.48;100256.03;5005487;28;20041;-89
2022/12/02 05:53:25;;;;;;;36.03;14.10;;;;;;;5.50;78.64;100253.66;4946402;28;20050;-89
2022/12/02 05:55:53;;;;;;;33.60;14.05;;;;;;;5.53;78.96;100261.38;4951094;28;20109;-89
2022/12/02 05:58:20;;;;;;;35.13;14.98;;;;;;;5.59;78.78;100249.63;4958653;28;20066;-89
2022/12/02 06:00:56;;;;;;;30.10;13.52;;;;;;;5.55;78.56;100261.28;4946832;28;20054;-89
2022/12/02 06:03:24;;;;;;;33.85;13.55;;;;;;;5.60;78.51;100264.50;4981727;28;20470;-89
2022/12/02 06:05:52;;;;;;;39.33;14.32;;;;;;;5.55;78.74;100259.50;4962039;28;20390;-89
2022/12/02 06:08:25;;;;;;;31.45;13.55;;;;;;;5.49;78.73;100261.66;4959460;28;20552;-88
2022/12/02 06:10:57;;;;;;;36.30;14.45;;;;;;;5.51;78.76;100265.03;4948303;28;20125;-88
2022/12/02 06:13:26;;;;;;;35.88;14.23;;;;;;;5.54;78.76;100260.44;4986524;28;20145;-89
2022/12/02 06:15:53;;;;;;;33.25;12.95;;;;;;;5.39;79.06;100267.50;4968778;28;20038;-89
2022/12/02 06:18:29;;;;;;;30.02;12.27;;;;;;;5.40;78.67;100269.19;4967229;28;20046;-89
2022/12/02 06:21:01;;;;;;;30.65;12.80;;;;;;;5.44;78.69;100265.44;4948277;28;20129;-86
2022/12/02 06:23:30;;;;;;;30.23;13.02;;;;;;;5.46;78.98;100275.00;4970740;28;20542;-86
2022/12/02 06:25:58;;;;;;;32.78;13.40;;;;;;;5.48;79.07;100270.50;4986028;28;20042;-86
2022/12/02 06:28:25;;;;;;;28.38;13.07;;;;;;;5.45;79.03;100268.91;4982320;28;20378;-86
2022/12/02 06:31:01;;;;;;;30.58;12.60;;;;;;;5.50;78.64;100264.19;4965436;28;20097;-86
2022/12/02 06:33:32;;;;;;;37.47;11.77;;;;;;;5.41;79.24;100265.59;4961403;28;20133;-87
2022/12/02 06:36:02;;;;;;;25.83;11.45;;;;;;;5.42;79.11;100264.66;4971912;28;20042;-86
2022/12/02 06:38:31;;;;;;;31.00;12.15;;;;;;;5.44;79.49;100267.19;4969669;28;20503;-86
2022/12/02 06:41:30;;;;;;;30.27;11.93;;;;;;;5.46;79.58;100261.84;4970441;28;20073;-87
2022/12/02 06:46:52;;;;;;;27.83;11.30;;;;;;;5.38;80.43;100254.41;4919862;28;20046;-86
2022/12/02 06:49:23;;;;;;;25.88;12.27;;;;;;;5.37;81.68;100264.09;4971268;28;20050;-86
2022/12/02 06:51:55;;;;;;;23.85;10.75;;;;;;;5.41;81.56;100260.31;4980031;28;20510;-86
2022/12/02 06:54:25;;;;;;;31.27;11.80;;;;;;;5.44;81.58;100264.56;4955778;28;20066;-86
2022/12/02 06:56:51;;;;;;;30.70;12.48;;;;;;;5.44;82.01;100265.44;4971270;28;20046;-87
2022/12/02 06:59:21;;;;;;;29.58;12.05;;;;;;;5.42;82.31;100262.03;4984727;28;20544;-87
2022/12/02 07:01:52;;;;;;;28.20;12.27;;;;;;;5.46;82.06;100261.84;4974241;28;20351;-86
2022/12/02 07:04:45;;;;;;;31.52;12.07;;;;;;;5.40;83.02;100269.19;4951757;28;20046;-85
2022/12/02 07:07:19;;;;;;;24.67;11.73;;;;;;;5.41;81.93;100262.94;4950794;28;20043;-86
2022/12/02 07:09:48;;;;;;;29.77;12.63;;;;;;;5.43;81.68;100260.25;4922711;28;20459;-86
2022/12/02 07:12:19;;;;;;;29.98;12.73;;;;;;;5.41;82.17;100255.06;4918876;28;20137;-86
2022/12/02 07:14:48;;;;;;;32.67;13.63;;;;;;;5.44;82.36;100256.66;4916841;28;20053;-86
2022/12/02 07:17:34;;;;;;;36.15;13.88;;;;;;;5.39;82.52;100261.34;4903496;28;20082;-86
2022/12/02 07:20:10;;;;;;;29.08;12.95;;;;;;;5.41;82.33;100257.69;4937649;28;20057;-86
2022/12/02 07:22:48;;;;;;;30.45;12.50;;;;;;;5.41;82.44;100257.69;4953401;28;20053;-86
2022/12/02 07:25:15;;;;;;;31.95;13.52;;;;;;;5.47;82.79;100261.75;4971382;28;20546;-86
2022/12/02 07:27:49;;;;;;;30.20;12.85;;;;;;;5.42;82.85;100259.41;4948423;28;20046;-86
2022/12/02 07:30:31;;;;;;;30.27;12.65;;;;;;;5.37;82.96;100253.56;4935324;28;20051;-86
2022/12/02 07:32:58;;;;;;;26.90;11.50;;;;;;;5.46;82.25;100249.50;4906199;28;20450;-86
2022/12/02 07:35:26;;;;;;;30.33;12.30;;;;;;;5.46;82.42;100256.56;4938755;28;20125;-86
2022/12/02 07:37:53;;;;;;;25.00;10.77;;;;;;;5.47;82.10;100255.63;4956358;28;20491;-86
2022/12/02 07:40:19;;;;;;;27.20;12.40;;;;;;;5.49;82.10;100254.59;4925534;28;20101;-85
2022/12/02 07:42:46;;;;;;;25.52;11.27;;;;;;;5.45;82.10;100255.72;4967701;28;20096;-87
2022/12/02 07:45:15;;;;;;;29.33;12.25;;;;;;;5.49;82.15;100251.97;4967016;28;20061;-86
2022/12/02 07:47:42;;;;;;;23.90;10.15;;;;;;;5.45;83.00;100261.00;4960621;28;20459;-86
2022/12/02 07:50:11;;;;;;;24.60;11.45;;;;;;;5.47;82.84;100256.50;4968484;28;20050;-85
2022/12/02 07:52:37;;;;;;;24.90;10.68;;;;;;;5.46;82.30;100264.47;4979619;28;20100;-85
2022/12/02 07:55:06;;;;;;;30.67;12.63;;;;;;;5.46;81.84;100260.03;4963174;28;20060;-87
2022/12/02 07:57:33;;;;;;;29.92;12.50;;;;;;;5.44;81.51;100252.25;4960619;28;20053;-86
2022/12/02 08:00:04;;;;;;;28.30;12.25;;;;;;;5.43;81.52;100266.34;4969483;28;20046;-86
2022/12/02 08:02:38;;;;;;;26.55;12.07;;;;;;;5.43;81.58;100258.44;4987264;28;20048;-87
2022/12/02 08:05:05;;;;;;;29.48;13.90;;;;;;;5.42;80.68;100258.56;4971168;28;20058;-86
2022/12/02 08:07:32;;;;;;;29.65;11.80;;;;;;;5.36;81.08;100257.13;4972324;28;20049;-86
2022/12/02 08:09:59;;;;;;;28.10;12.98;;;;;;;5.25;80.86;100258.72;4952551;28;20054;-85
2022/12/02 08:12:25;;;;;;;30.77;13.45;;;;;;;5.31;80.62;100261.81;4975286;28;20360;-85
2022/12/02 08:14:52;;;;;;;31.20;13.48;;;;;;;5.26;80.71;100255.13;4966387;28;20053;-86
2022/12/02 08:17:19;;;;;;;28.30;12.30;;;;;;;5.24;81.37;100260.50;4977388;28;20049;-86
2022/12/02 08:19:46;;;;;;;26.10;12.35;;;;;;;5.11;81.20;100270.88;4963446;28;20050;-84
2022/12/02 08:22:13;;;;;;;30.98;13.18;;;;;;;5.16;79.94;100266.19;4964448;28;20494;-85
2022/12/02 08:24:39;;;;;;;25.50;12.40;;;;;;;5.13;80.62;100255.84;4971168;28;20042;-86
2022/12/02 08:27:06;;;;;;;25.80;12.57;;;;;;;5.13;81.21;100263.75;4949701;28;20046;-86
2022/12/02 08:29:33;;;;;;;27.45;12.63;;;;;;;5.13;80.73;100255.84;4989628;28;20042;-86
2022/12/02 08:32:00;;;;;;;27.42;12.13;;;;;;;5.10;80.92;100263.94;4966828;28;20054;-86
2022/12/02 08:34:27;;;;;;;29.33;13.60;;;;;;;5.13;81.03;100265.53;4951926;28;20038;-86
2022/12/02 08:36:54;;;;;;;25.27;12.35;;;;;;;5.11;80.36;100256.88;4940664;28;20463;-86
2022/12/02 08:39:20;;;;;;;29.17;12.85;;;;;;;5.14;79.69;100257.56;4992421;28;20080;-86
2022/12/02 08:41:47;;;;;;;27.20;12.07;;;;;;;5.09;80.29;100250.84;4975061;28;20469;-86
2022/12/02 08:44:14;;;;;;;22.10;10.45;;;;;;;5.11;80.02;100254.25;4976613;28;20116;-86
2022/12/02 08:46:41;;;;;;;22.65;10.73;;;;;;;5.04;80.19;100248.53;4953258;28;20048;-86
2022/12/02 08:49:07;;;;;;;27.90;12.48;;;;;;;4.93;80.34;100261.44;4977775;28;20497;-85
2022/12/02 08:51:35;;;;;;;25.52;11.65;;;;;;;5.01;79.97;100256.56;4973270;28;20069;-86
2022/12/02 08:54:02;;;;;;;28.35;12.25;;;;;;;5.03;80.01;100249.44;4962301;28;20381;-85
2022/12/02 08:56:28;;;;;;;28.05;11.82;;;;;;;5.01;81.05;100253.94;4972734;28;20125;-86
2022/12/02 08:58:55;;;;;;;27.55;11.60;;;;;;;5.03;81.51;100252.06;4963824;28;20494;-86
2022/12/02 09:01:22;;;;;;;30.15;13.73;;;;;;;5.04;81.28;100243.25;5004313;28;20072;-86
2022/12/02 09:03:49;;;;;;;22.27;10.52;;;;;;;5.05;80.57;100246.72;4976309;28;20139;-86
2022/12/02 09:06:15;;;;;;;22.80;11.60;;;;;;;5.05;80.64;100252.00;4954584;28;20112;-86
2022/12/02 09:08:42;;;;;;;27.65;11.65;;;;;;;5.10;80.51;100250.78;4951935;28;20046;-86
2022/12/02 09:11:09;;;;;;;21.35;9.75;;;;;;;5.08;81.05;100251.81;4972507;28;20135;-86
2022/12/02 09:13:36;;;;;;;19.27;10.10;;;;;;;5.12;79.45;100248.91;4967638;28;20049;-86
2022/12/02 09:16:03;;;;;;;19.73;9.05;;;;;;;5.08;79.87;100251.81;4974658;28;20054;-86
2022/12/02 09:18:29;;;;;;;17.90;8.75;;;;;;;4.86;81.18;100252.19;4971046;28;20104;-86
2022/12/02 09:20:56;;;;;;;18.00;8.88;;;;;;;4.93;80.78;100253.53;4954146;28;20478;-86
2022/12/02 09:23:23;;;;;;;21.33;9.52;;;;;;;4.80;81.87;100256.03;4954114;28;20452;-87
2022/12/02 09:25:50;;;;;;;15.35;8.15;;;;;;;4.74;82.00;100264.31;4967269;28;20042;-87
2022/12/02 09:28:17;;;;;;;16.52;8.45;;;;;;;4.77;81.60;100254.44;4972350;28;20050;-86
2022/12/02 09:30:43;;;;;;;17.98;8.63;;;;;;;4.88;81.58;100259.06;4957545;28;20416;-86
2022/12/02 09:33:10;;;;;;;15.73;8.68;;;;;;;4.90;81.10;100256.38;4965888;28;20034;-86
2022/12/02 09:35:37;;;;;;;18.17;8.68;;;;;;;4.87;81.30;100254.75;4954462;28;20053;-85
2022/12/02 09:38:04;;;;;;;15.65;8.57;;;;;;;4.88;81.43;100245.06;4957348;28;20061;-87
2022/12/02 09:40:34;;;;;;;21.73;9.90;;;;;;;4.84;81.91;100252.31;4971285;28;20050;-85
2022/12/02 09:43:02;;;;;;;18.55;9.73;;;;;;;4.83;82.12;100252.38;4970312;28;20513;-86
2022/12/02 09:45:29;;;;;;;16.85;8.68;;;;;;;4.84;81.58;100248.84;4972016;28;20509;-86
2022/12/02 09:47:56;;;;;;;16.58;9.35;;;;;;;4.84;81.36;100238.31;4970684;28;20358;-86
2022/12/02 09:50:25;;;;;;;17.00;9.50;;;;;;;4.85;81.40;100237.38;4970594;28;20038;-86
2022/12/02 09:53:04;;;;;;;16.00;8.07;;;;;;;4.85;82.05;100238.22;4954474;28;20490;-86
2022/12/02 09:55:31;;;;;;;18.45;9.10;;;;;;;4.83;82.45;100247.13;4935233;28;20125;-86
2022/12/02 09:58:14;;;;;;;15.05;7.95;;;;;;;4.84;81.51;100246.22;4966269;28;20125;-86
2022/12/02 10:00:41;;;;;;;17.85;9.38;;;;;;;4.87;81.30;100240.75;4930566;28;20113;-86
2022/12/02 10:03:09;;;;;;;16.80;7.97;;;;;;;4.85;81.36;100240.84;4967785;28;20415;-86
2022/12/02 10:05:44;;;;;;;16.55;8.05;;;;;;;4.79;82.24;100243.84;4978747;28;20137;-85
2022/12/02 10:08:15;;;;;;;15.60;8.18;;;;;;;4.81;81.76;100236.72;4953193;28;20049;-85
2022/12/02 10:10:44;;;;;;;18.75;8.77;;;;;;;4.79;81.80;100236.78;4966631;28;20053;-86
2022/12/02 10:13:15;;;;;;;16.95;9.07;;;;;;;4.77;82.47;100238.66;4972047;28;20457;-86
2022/12/02 10:15:43;;;;;;;16.80;8.98;;;;;;;4.83;82.16;100233.97;4970398;28;20042;-85
2022/12/02 10:18:19;;;;;;;13.80;7.47;;;;;;;4.85;82.69;100229.47;4966466;28;20142;-87
2022/12/02 10:20:45;;;;;;;15.70;8.25;;;;;;;4.84;82.60;100233.91;4998698;28;20489;-85
2022/12/02 10:23:15;;;;;;;15.55;7.95;;;;;;;4.70;82.21;100232.03;4958688;28;20050;-84
2022/12/02 10:25:54;;;;;;;13.98;7.10;;;;;;;4.81;82.08;100231.44;4968771;28;20057;-86
2022/12/02 10:28:27;;;;;;;12.75;7.05;;;;;;;4.66;82.65;100222.66;4973564;28;20042;-86
2022/12/02 10:31:18;;;;;;;14.75;8.27;;;;;;;4.68;82.65;100226.06;4947891;28;20042;-85
2022/12/02 10:33:53;;;;;;;14.07;7.57;;;;;;;4.60;82.11;100225.63;4897812;28;20439;-85
2022/12/02 10:36:30;;;;;;;11.20;7.05;;;;;;;4.61;81.51;100218.59;4976273;28;20053;-85
2022/12/02 10:39:20;;;;;;;15.32;9.00;;;;;;;4.68;81.18;100222.53;4968339;28;20101;-86
2022/12/02 10:41:48;;;;;;;12.73;6.43;;;;;;;4.74;81.07;100217.78;4974070;28;20057;-86
2022/12/02 10:44:17;;;;;;;13.45;7.20;;;;;;;4.81;80.58;100215.66;4964392;28;20057;-86
2022/12/02 10:46:45;;;;;;;13.82;7.25;;;;;;;4.74;81.82;100214.31;4978677;28;20060;-86
2022/12/02 10:49:25;;;;;;;12.63;7.18;;;;;;;4.71;81.34;100206.63;4967821;28;20038;-85
2022/12/02 10:51:53;;;;;;;16.65;8.30;;;;;;;4.76;81.50;100196.66;4931146;28;20069;-86
2022/12/02 10:54:27;;;;;;;13.18;7.45;;;;;;;4.74;82.48;100199.38;4960479;28;20046;-86
2022/12/02 10:57:01;;;;;;;13.90;7.40;;;;;;;4.73;82.50;100202.09;4957038;28;20098;-85
2022/12/02 10:59:28;;;;;;;13.15;6.85;;;;;;;4.79;81.01;100193.84;4973176;28;20042;-85
2022/12/02 11:01:55;;;;;;;12.52;6.15;;;;;;;4.61;82.03;100197.56;4975629;28;20050;-85
2022/12/02 11:04:23;;;;;;;9.73;6.10;;;;;;;4.62;81.55;100193.97;4956265;28;20050;-86
2022/12/02 11:06:50;;;;;;;11.25;6.10;;;;;;;4.61;81.63;100197.56;4951349;28;20046;-85
2022/12/02 11:09:20;;;;;;;9.55;5.70;;;;;;;4.48;81.23;100192.16;4978983;28;20046;-86
2022/12/02 11:12:44;;;;;;;10.05;5.82;;;;;;;4.50;81.56;100187.63;4924696;28;20047;-86
2022/12/02 11:15:42;;;;;;;11.38;6.32;;;;;;;4.43;82.38;100187.16;4933105;28;20404;-86
2022/12/02 11:18:28;;;;;;;9.05;5.68;;;;;;;4.50;82.30;100195.53;4965908;28;20045;-86
2022/12/02 11:21:02;;;;;;;11.13;6.85;;;;;;;4.49;80.63;100189.44;4945906;28;20046;-85
2022/12/02 11:23:29;;;;;;;;;;;;;;;4.43;81.46;100183.69;4990281;28;20046;-86
2022/12/02 11:25:55;;;;;;;10.10;6.25;;;;;;;4.52;81.50;100181.34;5000758;28;19922;-86
2022/12/02 11:28:28;;;;;;;11.32;6.57;;;;;;;4.43;81.28;100171.38;4988873;28;20039;-85
2022/12/02 11:31:09;;;;;;;10.60;6.07;;;;;;;4.52;80.80;100177.88;4987745;28;20046;-85
2022/12/02 11:33:42;;;;;;;10.25;6.10;;;;;;;4.52;80.73;100176.09;4989449;28;20449;-85